Kenai, AK

11:15 PM AKST on December 03, 2016 (GMT -0900)
Crow ct | | Change Station

Elev 99 ft 60.55 °N, 151.20 °W | Updated 30 seconds ago

Clear
Clear
14.0 °F
Feels Like 4 °F
N
6.3
Wind Variable Wind from NW

Today
High -- | Low -- °F
--% Chance of Precip.
Yesterday
High -- | Low -- °F
Precip. -- in
Pressure 30.09 in
Visibility 10.0 miles
Clouds Clear
Windchill 4 °F
Dew Point 1 °F
Humidity 55%
Rainfall 0.00 in
Snow Depth Not available.
9:50 AM 3:59 PM
Waxing Crescent, 21% visible
METAR PAEN 040753Z AUTO 35012KT 10SM CLR M10/M18 A3008 RMK AO2 SLP190 T11001183 TSNO
Pressure 30.09 in
Visibility 10.0 miles
Clouds Clear
Windchill 4 °F
Dew Point 1 °F
Humidity 55%
Rainfall 0.00 in
Snow Depth Not available.
9:50 AM 3:59 PM
Waxing Crescent, 21% visible
METAR PAEN 040753Z AUTO 35012KT 10SM CLR M10/M18 A3008 RMK AO2 SLP190 T11001183 TSNO

10-Day Weather Forecast

Almanac

Astronomy

Dec. 03, 2016 Rise Set
Actual Time
Civil Twilight
Nautical Twilight
Astronomical Twilight
Moon
Length of Visible Light
Length of Day
Tomorrow will be .
, % of the Moon is Illuminated

Today's Extremes

State Highs State Lows

Community

WunderPhotos

Upload Photos

1,955,587 photos uploaded!

WunderBlog® & News

Nearby

Air Quality

  Air Quality AQ Index Pollutant
Not available.

Snow Depth

Station Depth Elevation

Earthquake Activity

City Distance Mag. Time & Date
Minimum magnitude displayed is 2.5.

Coastal Water Temperatures

Place Temperature

Stations

Nearby Weather Stations

Station Location Temp. Windchill Dew Point Humidity Wind Precip. Elev Updated Type
                   

Watches & Warnings

There are currently no watches in effect.